Time;durP1;ratioP1;P1;durP2;ratioP2;P2;SDS_P1;SDS_P2;PMS_P1;PMS_P2;Temp;Humidity;BMP_temperature;BMP_pressure;BME280_temperature;BME280_humidity;BME280_pressure;Samples;Min_cycle;Max_cycle;Signal;HPM_P1;HPM_P2
2023/07/30 00:00:30;;;;;;;2.40;1.00;;;;;;;16.86;100.00;97898.13;15316478;19;20014;-79
2023/07/30 00:06:04;;;;;;;1.38;0.82;;;;;;;16.82;100.00;97900.44;15313683;19;20017;-79
2023/07/30 00:11:35;;;;;;;2.58;0.82;;;;;;;16.77;100.00;97908.41;15310807;19;20014;-78
2023/07/30 00:16:59;;;;;;;1.70;1.08;;;;;;;16.72;100.00;97917.19;15313509;19;20514;-79
2023/07/30 00:22:27;;;;;;;3.17;1.13;;;;;;;16.69;100.00;97914.09;15309483;19;20018;-79
2023/07/30 00:27:51;;;;;;;1.65;1.10;;;;;;;16.67;100.00;97927.06;15310224;19;20026;-79
2023/07/30 00:33:16;;;;;;;3.28;1.10;;;;;;;16.67;100.00;97943.38;15310965;19;20027;-78
2023/07/30 00:38:43;;;;;;;3.13;1.10;;;;;;;16.67;100.00;97946.94;15311094;19;20018;-77
2023/07/30 00:44:08;;;;;;;1.52;1.02;;;;;;;16.66;100.00;97956.16;15306733;19;20054;-78
2023/07/30 00:49:33;;;;;;;1.73;1.20;;;;;;;16.66;100.00;97960.75;15309300;19;20046;-78
2023/07/30 00:55:02;;;;;;;1.40;1.00;;;;;;;16.64;100.00;97958.25;15305578;19;20015;-79
2023/07/30 01:00:29;;;;;;;1.55;1.08;;;;;;;16.62;100.00;97977.50;15314474;19;20058;-79
2023/07/30 01:05:55;;;;;;;4.00;1.27;;;;;;;16.59;100.00;97961.59;15309963;19;20018;-79
2023/07/30 01:11:30;;;;;;;0.88;0.88;;;;;;;16.57;100.00;97963.69;15308479;19;20010;-78
2023/07/30 01:16:56;;;;;;;5.00;1.10;;;;;;;16.58;100.00;97970.81;15304214;19;20035;-79
2023/07/30 01:22:23;;;;;;;1.05;0.90;;;;;;;16.58;100.00;97969.97;15309055;19;20059;-79
2023/07/30 01:27:54;;;;;;;1.20;1.02;;;;;;;16.51;100.00;97948.22;15307619;19;20011;-78
2023/07/30 01:33:20;;;;;;;1.98;1.05;;;;;;;16.47;100.00;97950.50;15310119;19;20010;-79
2023/07/30 01:38:48;;;;;;;1.13;1.02;;;;;;;16.44;100.00;97958.25;15315687;19;20015;-79
2023/07/30 01:44:14;;;;;;;1.95;1.20;;;;;;;16.43;100.00;97951.16;15343828;19;20013;-78
2023/07/30 01:49:38;;;;;;;1.70;1.08;;;;;;;16.40;100.00;97957.03;15362371;19;20018;-78
2023/07/30 01:55:06;;;;;;;1.58;1.10;;;;;;;16.38;100.00;97953.69;15359870;19;20014;-78
2023/07/30 02:00:30;;;;;;;1.00;1.00;;;;;;;16.35;100.00;97954.09;15334086;19;20018;-79
2023/07/30 02:05:55;;;;;;;2.55;0.93;;;;;;;16.33;100.00;97966.00;15320628;19;20045;-79
2023/07/30 02:11:29;;;;;;;1.17;1.08;;;;;;;16.31;100.00;97970.81;15314418;19;20054;-79
2023/07/30 02:16:53;;;;;;;2.33;1.13;;;;;;;16.31;100.00;97978.16;15319485;19;20027;-78
2023/07/30 02:22:18;;;;;;;1.55;1.02;;;;;;;16.30;100.00;97980.00;15310454;19;20362;-78
2023/07/30 02:27:45;;;;;;;2.47;1.20;;;;;;;16.30;100.00;97982.72;15317923;19;20027;-79
2023/07/30 02:33:10;;;;;;;1.30;1.20;;;;;;;16.30;100.00;97990.88;15308231;19;20030;-79
2023/07/30 02:38:34;;;;;;;2.38;1.10;;;;;;;16.28;100.00;97984.00;15316697;19;20006;-79
2023/07/30 02:44:02;;;;;;;1.60;1.10;;;;;;;16.26;100.00;97986.94;15317262;19;20031;-78
2023/07/30 02:49:26;;;;;;;1.73;1.17;;;;;;;16.25;100.00;97987.97;15311211;19;20011;-79
2023/07/30 02:54:51;;;;;;;2.13;1.10;;;;;;;16.25;100.00;97981.69;15305462;19;20003;-79
2023/07/30 03:00:19;;;;;;;1.48;1.10;;;;;;;16.21;100.00;97981.28;15309803;19;20026;-78
2023/07/30 03:05:43;;;;;;;1.85;1.23;;;;;;;16.19;100.00;97988.78;15315911;19;20145;-79
2023/07/30 03:11:07;;;;;;;1.33;1.20;;;;;;;16.17;100.00;97990.88;15321380;19;20018;-79
2023/07/30 03:16:35;;;;;;;1.48;1.00;;;;;;;16.14;100.00;97994.03;15321886;19;20046;-79
2023/07/30 03:21:59;;;;;;;1.65;1.10;;;;;;;16.10;100.00;97990.91;15321337;19;20346;-78
2023/07/30 03:27:24;;;;;;;3.35;1.20;;;;;;;16.08;100.00;97986.69;15311780;19;20006;-79
2023/07/30 03:32:51;;;;;;;1.20;1.10;;;;;;;16.04;100.00;97996.31;15307459;19;20086;-75
2023/07/30 03:38:16;;;;;;;1.35;1.00;;;;;;;16.01;100.00;98003.84;15282250;19;20014;-74
2023/07/30 03:43:41;;;;;;;2.63;1.10;;;;;;;15.99;100.00;98011.34;15290523;19;20548;-73
2023/07/30 03:49:08;;;;;;;1.70;1.10;;;;;;;15.97;100.00;98013.44;15288767;19;20007;-74
2023/07/30 03:54:32;;;;;;;1.98;1.20;;;;;;;15.96;100.00;98025.34;15283511;19;20086;-73
2023/07/30 03:59:57;;;;;;;4.07;1.20;;;;;;;15.95;100.00;98031.00;15279991;19;20014;-73
2023/07/30 04:05:30;;;;;;;1.30;1.00;;;;;;;15.95;100.00;98031.81;15288816;19;20390;-74
2023/07/30 04:10:55;;;;;;;1.67;1.10;;;;;;;15.95;100.00;98048.13;15280173;19;20061;-74
2023/07/30 04:16:19;;;;;;;1.42;1.08;;;;;;;15.94;100.00;98057.31;15289700;19;20039;-74
2023/07/30 04:21:47;;;;;;;2.65;1.20;;;;;;;15.95;100.00;98064.41;15288546;19;20078;-73
2023/07/30 04:27:11;;;;;;;1.85;1.20;;;;;;;15.95;100.00;98075.28;15289357;19;20483;-74
2023/07/30 04:32:37;;;;;;;3.20;1.20;;;;;;;15.95;100.00;98078.00;15276725;19;20362;-73
2023/07/30 04:38:04;;;;;;;1.92;1.10;;;;;;;15.97;100.00;98088.69;15284691;19;20018;-73
2023/07/30 04:43:29;;;;;;;1.83;1.00;;;;;;;16.00;100.00;98099.97;15279860;19;20854;-74
2023/07/30 04:48:53;;;;;;;2.55;1.10;;;;;;;16.05;100.00;98115.66;15285466;19;20018;-74
2023/07/30 04:54:21;;;;;;;2.33;1.10;;;;;;;16.08;100.00;98120.69;15284139;19;20017;-73
2023/07/30 04:59:45;;;;;;;2.05;1.08;;;;;;;16.11;100.00;98120.25;15285625;19;20010;-74
2023/07/30 05:05:10;;;;;;;2.60;1.15;;;;;;;16.15;100.00;98109.84;15279367;19;20006;-75
2023/07/30 05:10:37;;;;;;;2.83;1.40;;;;;;;16.17;100.00;98102.31;15285011;19;20592;-75
2023/07/30 05:16:02;;;;;;;1.70;1.10;;;;;;;16.22;100.00;98107.97;15291379;19;20480;-74
2023/07/30 05:21:26;;;;;;;2.47;1.23;;;;;;;16.28;100.00;98119.91;15302653;19;20007;-74
2023/07/30 05:26:54;;;;;;;1.83;1.10;;;;;;;16.37;100.00;98134.16;15301835;19;20049;-74
2023/07/30 05:32:19;;;;;;;2.63;1.00;;;;;;;16.49;100.00;98165.94;15299787;19;20032;-73
2023/07/30 05:37:43;;;;;;;2.63;1.20;;;;;;;16.60;100.00;98169.97;15295915;19;20066;-73
2023/07/30 05:43:10;;;;;;;1.30;1.00;;;;;;;16.67;100.00;98167.25;15326935;19;20015;-72
2023/07/30 05:48:35;;;;;;;2.95;1.20;;;;;;;16.73;100.00;98168.31;15298541;19;20014;-73
2023/07/30 05:54:00;;;;;;;1.20;1.08;;;;;;;16.78;100.00;98171.22;15294773;19;20403;-73
2023/07/30 05:59:29;;;;;;;1.77;1.10;;;;;;;16.81;100.00;98162.66;15289387;19;20049;-74
2023/07/30 06:04:54;;;;;;;1.55;1.10;;;;;;;16.86;100.00;98146.56;15295411;19;20018;-74
2023/07/30 06:10:19;;;;;;;1.98;1.08;;;;;;;16.97;100.00;98163.34;15285179;19;20021;-73
2023/07/30 06:15:46;;;;;;;3.03;1.10;;;;;;;17.08;100.00;98160.81;15289604;19;20077;-73
2023/07/30 06:21:12;;;;;;;1.58;1.00;;;;;;;17.29;100.00;98169.78;15297277;19;20017;-73
2023/07/30 06:26:37;;;;;;;1.83;1.00;;;;;;;17.56;100.00;98167.03;15292812;19;20566;-74
2023/07/30 06:32:04;;;;;;;0.93;0.90;;;;;;;17.83;100.00;98145.16;15296766;19;20353;-73
2023/07/30 06:37:28;;;;;;;3.38;0.90;;;;;;;18.07;100.00;98085.56;15295585;19;20032;-73
2023/07/30 06:42:53;;;;;;;1.65;0.80;;;;;;;18.23;100.00;98018.75;15289515;19;20017;-73
2023/07/30 06:48:20;;;;;;;1.35;0.77;;;;;;;18.45;100.00;97973.69;15283563;19;20497;-73
2023/07/30 06:53:45;;;;;;;1.50;0.80;;;;;;;18.67;100.00;97978.72;15291471;19;20448;-79
2023/07/30 06:59:10;;;;;;;1.55;0.70;;;;;;;18.75;100.00;97981.19;15301795;19;20047;-79
2023/07/30 07:04:37;;;;;;;3.65;0.90;;;;;;;18.83;100.00;97960.13;15305023;19;20034;-79
2023/07/30 07:10:01;;;;;;;2.47;0.73;;;;;;;18.97;100.00;97952.63;15301254;19;20011;-78
2023/07/30 07:15:26;;;;;;;2.22;0.80;;;;;;;19.08;100.00;97947.25;15305595;19;20017;-79
2023/07/30 07:20:53;;;;;;;1.65;0.90;;;;;;;19.13;100.00;97912.97;15300385;19;20015;-78
2023/07/30 07:26:18;;;;;;;0.68;0.50;;;;;;;19.20;100.00;97905.53;15302114;19;20011;-79
2023/07/30 07:31:43;;;;;;;0.60;0.50;;;;;;;19.19;100.00;97907.41;15304184;19;20017;-79
2023/07/30 07:37:11;;;;;;;1.08;0.60;;;;;;;19.26;100.00;97896.41;15299849;19;20018;-79
2023/07/30 07:42:36;;;;;;;0.65;0.50;;;;;;;19.30;100.00;97885.84;15300329;19;20013;-79
2023/07/30 07:48:00;;;;;;;1.02;0.50;;;;;;;19.40;100.00;97908.81;15297821;19;20028;-79
2023/07/30 07:53:27;;;;;;;0.82;0.57;;;;;;;19.37;100.00;97897.53;15293778;19;20358;-80
2023/07/30 07:58:52;;;;;;;1.08;0.50;;;;;;;19.58;100.00;97914.47;15300108;19;20018;-77
2023/07/30 08:04:23;;;;;;;1.38;0.60;;;;;;;19.65;100.00;97912.47;15300719;19;20027;-78
2023/07/30 08:09:58;;;;;;;2.38;0.60;;;;;;;19.77;100.00;97915.25;15295300;19;20011;-79
2023/07/30 08:15:23;;;;;;;0.80;0.57;;;;;;;19.80;100.00;97910.13;15316859;19;20010;-78
2023/07/30 08:20:47;;;;;;;1.98;0.70;;;;;;;19.94;100.00;97902.59;15313562;19;20006;-79
2023/07/30 08:26:14;;;;;;;0.55;0.38;;;;;;;20.06;100.00;97893.56;15298029;19;20010;-79
2023/07/30 08:31:46;;;;;;;0.60;0.40;;;;;;;20.18;100.00;97891.69;15305882;19;20013;-79
2023/07/30 08:37:11;;;;;;;1.33;0.50;;;;;;;20.20;100.00;97891.47;15298117;19;20058;-79
2023/07/30 08:42:38;;;;;;;0.70;0.50;;;;;;;20.28;100.00;97886.47;15301278;19;20082;-78
2023/07/30 08:48:03;;;;;;;1.13;0.52;;;;;;;20.39;100.00;97887.53;15292612;19;20098;-79
2023/07/30 08:53:28;;;;;;;1.48;0.60;;;;;;;20.45;100.00;97885.75;15304787;19;20343;-78
2023/07/30 08:58:59;;;;;;;1.25;0.40;;;;;;;20.70;100.00;97873.69;15296491;19;20102;-79
2023/07/30 09:04:26;;;;;;;0.90;0.40;;;;;;;20.65;100.00;97885.38;15303646;19;20014;-78
2023/07/30 09:09:57;;;;;;;1.85;0.40;;;;;;;20.74;100.00;97877.63;15301925;19;20011;-79
2023/07/30 09:15:32;;;;;;;0.60;0.40;;;;;;;20.84;100.00;97877.88;15294839;19;20010;-75
2023/07/30 09:20:57;;;;;;;0.82;0.32;;;;;;;20.91;100.00;97877.75;15283155;19;20007;-75
2023/07/30 09:26:24;;;;;;;2.63;0.40;;;;;;;21.00;100.00;97881.75;15286508;19;20021;-76
2023/07/30 09:32:03;;;;;;;3.63;0.40;;;;;;;21.06;100.00;97875.31;15283087;19;20108;-77
2023/07/30 09:37:28;;;;;;;0.35;0.35;;;;;;;21.34;100.00;97873.66;15284005;19;20018;-77
2023/07/30 09:42:54;;;;;;;0.80;0.50;;;;;;;21.55;100.00;97877.63;15337470;19;20062;-76
2023/07/30 09:48:22;;;;;;;2.70;0.40;;;;;;;21.66;100.00;97878.66;15297531;19;20011;-76
2023/07/30 09:53:47;;;;;;;2.40;0.30;;;;;;;21.81;100.00;97874.53;15278053;19;20018;-77
2023/07/30 09:59:12;;;;;;;0.47;0.28;;;;;;;21.98;100.00;97874.53;15284602;19;20077;-75
2023/07/30 10:04:51;;;;;;;0.40;0.30;;;;;;;22.17;100.00;97873.19;15297593;19;20018;-77
2023/07/30 10:10:44;;;;;;;0.40;0.30;;;;;;;22.34;100.00;97869.59;15300080;19;20342;-78
2023/07/30 10:16:12;;;;;;;2.25;0.40;;;;;;;22.37;100.00;97855.38;15294420;19;20014;-78
2023/07/30 10:21:42;;;;;;;1.02;0.32;;;;;;;22.47;100.00;97866.53;15297482;19;20074;-78
2023/07/30 10:27:09;;;;;;;0.47;0.30;;;;;;;22.40;100.00;97857.59;15290292;19;20043;-78
2023/07/30 10:32:47;;;;;;;1.02;0.43;;;;;;;22.73;100.00;97847.69;15307316;19;20034;-77
2023/07/30 10:38:24;;;;;;;0.50;0.35;;;;;;;22.84;100.00;97847.81;15292805;19;20039;-76
2023/07/30 10:43:51;;;;;;;0.40;0.30;;;;;;;22.90;100.00;97828.38;15302869;19;20014;-76
2023/07/30 10:49:16;;;;;;;2.47;0.32;;;;;;;23.03;100.00;97827.16;15300943;19;20074;-77
2023/07/30 10:54:45;;;;;;;0.30;0.20;;;;;;;23.22;100.00;97824.09;15299797;19;20097;-77
2023/07/30 11:00:12;;;;;;;0.20;0.20;;;;;;;23.35;100.00;97817.34;15287132;19;20074;-77
2023/07/30 11:05:37;;;;;;;0.20;0.20;;;;;;;23.51;100.00;97818.31;15302081;19;20086;-77
2023/07/30 11:11:11;;;;;;;3.50;0.40;;;;;;;23.41;100.00;97815.47;15289357;19;20022;-76
2023/07/30 11:16:39;;;;;;;0.50;0.30;;;;;;;23.47;100.00;97806.19;15299605;19;20102;-78
2023/07/30 11:22:09;;;;;;;0.77;0.40;;;;;;;23.52;100.00;97815.31;15299087;19;20018;-77
2023/07/30 11:27:47;;;;;;;0.30;0.30;;;;;;;23.60;100.00;97816.75;15296752;19;20025;-77
2023/07/30 11:33:12;;;;;;;1.05;0.32;;;;;;;23.87;100.00;97799.38;15303232;19;20013;-77
2023/07/30 11:38:37;;;;;;;0.22;0.20;;;;;;;24.05;100.00;97784.41;15297876;19;20014;-76
2023/07/30 11:44:05;;;;;;;0.30;0.30;;;;;;;24.22;100.00;97788.94;15301757;19;20018;-78
2023/07/30 11:49:31;;;;;;;0.85;0.40;;;;;;;24.23;100.00;97787.81;15299419;19;20038;-78
2023/07/30 11:54:55;;;;;;;0.50;0.30;;;;;;;24.06;100.00;97785.22;15301650;19;20019;-78
2023/07/30 12:00:26;;;;;;;1.73;0.38;;;;;;;23.81;100.00;97789.44;15292892;19;20029;-76
2023/07/30 12:05:50;;;;;;;;;;;;;;;23.58;99.61;97801.63;15295937;19;20031;-78
2023/07/30 12:11:22;;;;;;;0.47;0.38;;;;;;;23.42;100.00;97803.41;15290561;19;19911;-76
2023/07/30 12:16:50;;;;;;;0.73;0.25;;;;;;;23.07;100.00;97810.97;15293756;19;20007;-77
2023/07/30 12:22:15;;;;;;;2.10;0.50;;;;;;;22.76;100.00;97822.44;15293803;19;20014;-77
2023/07/30 12:27:40;;;;;;;1.48;0.40;;;;;;;22.58;100.00;97814.53;15290684;19;20390;-78
2023/07/30 12:33:07;;;;;;;0.82;0.50;;;;;;;22.42;100.00;97825.28;15289279;19;20895;-77
2023/07/30 12:38:32;;;;;;;3.13;0.50;;;;;;;22.22;100.00;97835.94;15293213;19;20077;-77
2023/07/30 12:43:56;;;;;;;6.97;1.05;;;;;;;21.35;100.00;97844.34;15306317;19;20037;-77
2023/07/30 12:49:24;;;;;;;2.58;0.60;;;;;;;20.99;100.00;97851.91;15292989;19;20007;-77
2023/07/30 12:54:49;;;;;;;1.27;0.40;;;;;;;20.81;100.00;97850.97;15294447;19;20006;-78
2023/07/30 13:00:15;;;;;;;1.15;0.50;;;;;;;20.69;100.00;97855.63;15290621;19;20022;-78
2023/07/30 13:05:42;;;;;;;2.22;0.60;;;;;;;20.66;100.00;97858.81;15286933;19;20014;-78
2023/07/30 13:11:07;;;;;;;4.00;0.50;;;;;;;20.91;100.00;97850.38;15292115;19;20049;-78
2023/07/30 13:16:32;;;;;;;0.45;0.43;;;;;;;21.22;100.00;97862.75;15285787;19;20074;-78
2023/07/30 13:22:00;;;;;;;0.57;0.47;;;;;;;21.40;100.00;97842.53;15295239;19;20450;-79
2023/07/30 13:27:25;;;;;;;2.42;0.38;;;;;;;21.48;100.00;97844.03;15293085;19;20010;-77
2023/07/30 13:32:55;;;;;;;0.98;0.30;;;;;;;21.62;100.00;97832.78;15289192;19;20017;-75
2023/07/30 13:38:25;;;;;;;0.30;0.30;;;;;;;21.92;100.00;97826.19;15298619;19;20006;-77
2023/07/30 13:43:56;;;;;;;0.57;0.40;;;;;;;22.28;100.00;97823.97;15305113;19;20031;-77
2023/07/30 13:49:21;;;;;;;0.80;0.47;;;;;;;22.37;100.00;97832.59;15303469;19;20066;-77
2023/07/30 13:54:58;;;;;;;1.48;0.40;;;;;;;22.14;100.00;97829.81;15314778;19;20010;-78
2023/07/30 14:00:25;;;;;;;1.25;0.38;;;;;;;21.94;100.00;97832.22;15366735;19;20021;-81
2023/07/30 14:05:50;;;;;;;0.75;0.50;;;;;;;21.75;100.00;97837.16;15303108;19;20090;-77
2023/07/30 14:11:19;;;;;;;6.43;1.77;;;;;;;19.00;100.00;97968.56;15290573;19;20032;-76
2023/07/30 14:16:44;;;;;;;2.50;0.63;;;;;;;17.23;100.00;98037.25;15292896;19;20488;-75
2023/07/30 14:22:13;;;;;;;3.17;0.85;;;;;;;16.18;100.00;98128.44;15293133;19;20390;-76
2023/07/30 14:27:40;;;;;;;4.90;0.90;;;;;;;15.72;100.00;98208.69;15295813;19;20018;-74
2023/07/30 14:33:05;;;;;;;1.42;0.80;;;;;;;15.41;100.00;98270.50;15298481;19;20006;-76
2023/07/30 14:38:31;;;;;;;1.40;0.80;;;;;;;15.15;100.00;98272.97;15294300;19;20575;-74
2023/07/30 14:43:58;;;;;;;3.90;0.85;;;;;;;15.08;100.00;98259.34;15292663;19;20034;-75
2023/07/30 14:49:23;;;;;;;2.17;0.80;;;;;;;15.06;100.00;98246.00;15290492;19;20023;-75
2023/07/30 14:54:48;;;;;;;1.70;0.75;;;;;;;15.02;100.00;98222.97;15290474;19;20024;-76
2023/07/30 15:00:16;;;;;;;1.52;0.75;;;;;;;15.02;100.00;98231.13;15295261;19;20029;-76
2023/07/30 15:05:42;;;;;;;1.77;1.00;;;;;;;15.12;100.00;98224.53;15296438;19;20026;-74
2023/07/30 15:11:06;;;;;;;2.35;1.00;;;;;;;15.29;100.00;98173.53;15294430;19;20689;-76
2023/07/30 15:16:33;;;;;;;2.30;1.00;;;;;;;15.45;100.00;98183.25;15291881;19;20024;-76
2023/07/30 15:21:59;;;;;;;2.22;0.98;;;;;;;15.64;100.00;98185.25;15300598;19;20027;-75
2023/07/30 15:27:24;;;;;;;1.27;0.90;;;;;;;15.83;100.00;98199.13;15301351;19;20533;-76
2023/07/30 15:32:53;;;;;;;2.85;1.10;;;;;;;16.02;100.00;98176.69;15304122;19;20445;-77
2023/07/30 15:38:18;;;;;;;2.67;1.20;;;;;;;16.22;100.00;98150.63;15307626;19;20018;-77
2023/07/30 15:43:42;;;;;;;1.60;1.02;;;;;;;16.48;100.00;98149.84;15304325;19;20066;-78
2023/07/30 15:49:09;;;;;;;4.45;0.98;;;;;;;16.71;100.00;98091.50;15291052;19;20015;-77
2023/07/30 15:54:42;;;;;;;1.65;1.00;;;;;;;16.86;100.00;98075.81;14782874;19;10000148;-74
2023/07/30 16:00:08;;;;;;;2.17;1.00;;;;;;;16.95;100.00;98079.16;15283438;19;20020;-73
2023/07/30 16:05:36;;;;;;;2.15;0.90;;;;;;;17.33;100.00;98080.38;15291059;19;20031;-73
2023/07/30 16:11:05;;;;;;;2.90;1.00;;;;;;;17.94;100.00;98045.53;15290449;19;20014;-73
2023/07/30 16:16:29;;;;;;;0.98;0.70;;;;;;;18.31;100.00;98032.97;15289069;19;20026;-73
2023/07/30 16:21:57;;;;;;;2.67;1.02;;;;;;;18.52;100.00;98027.38;15286427;19;20013;-73
2023/07/30 16:27:21;;;;;;;2.10;0.77;;;;;;;18.76;100.00;98031.94;15289448;19;20010;-73
2023/07/30 16:32:47;;;;;;;1.23;0.73;;;;;;;19.01;100.00;98028.38;15283453;19;20073;-74
2023/07/30 16:38:14;;;;;;;2.03;0.80;;;;;;;19.22;100.00;98037.22;15286724;19;20021;-72
2023/07/30 16:43:39;;;;;;;4.55;0.90;;;;;;;19.46;100.00;98037.38;15285768;19;20018;-73
2023/07/30 16:49:03;;;;;;;1.27;0.77;;;;;;;19.47;100.00;98033.56;15285401;19;20023;-72
2023/07/30 16:54:30;;;;;;;2.08;0.90;;;;;;;19.23;100.00;98041.59;15278370;19;20085;-73
2023/07/30 16:59:55;;;;;;;1.17;0.70;;;;;;;19.49;100.00;98031.44;15275351;19;20010;-73
2023/07/30 17:05:20;;;;;;;2.35;0.90;;;;;;;19.55;100.00;98033.25;15279543;19;20371;-73
2023/07/30 17:10:47;;;;;;;1.88;0.80;;;;;;;19.62;100.00;98047.66;15291407;19;20024;-73
2023/07/30 17:16:16;;;;;;;1.48;0.73;;;;;;;19.49;100.00;98039.63;15300759;19;20090;-73
2023/07/30 17:21:40;;;;;;;2.05;0.80;;;;;;;19.28;100.00;98058.16;15303482;19;20039;-73
2023/07/30 17:27:10;;;;;;;1.92;0.88;;;;;;;18.97;100.00;98062.69;15294674;19;20495;-73
2023/07/30 17:32:36;;;;;;;3.30;0.77;;;;;;;18.87;100.00;98067.78;15300067;19;20018;-74
2023/07/30 17:38:01;;;;;;;2.47;0.90;;;;;;;18.69;100.00;98069.38;15295670;19;20027;-74
2023/07/30 17:43:29;;;;;;;3.22;1.10;;;;;;;18.62;100.00;98061.25;15299394;19;20006;-73
2023/07/30 17:48:54;;;;;;;2.75;0.75;;;;;;;18.51;100.00;98059.25;15298362;19;20021;-74
2023/07/30 17:54:18;;;;;;;2.22;0.80;;;;;;;18.39;100.00;98069.19;15300742;19;20021;-73
2023/07/30 17:59:46;;;;;;;2.40;0.80;;;;;;;18.21;100.00;98068.06;15322725;19;20002;-75
2023/07/30 18:05:10;;;;;;;2.58;0.90;;;;;;;18.21;100.00;98067.22;15306535;19;20014;-74
2023/07/30 18:10:39;;;;;;;2.97;1.20;;;;;;;18.15;100.00;98083.41;15294753;19;20014;-74
2023/07/30 18:16:06;;;;;;;2.20;0.90;;;;;;;18.18;100.00;98077.50;15296763;19;20014;-73
2023/07/30 18:21:31;;;;;;;2.15;1.00;;;;;;;18.11;100.00;98082.16;15298729;19;20034;-73
2023/07/30 18:26:55;;;;;;;3.70;0.82;;;;;;;18.07;100.00;98086.38;15292087;19;20094;-73
2023/07/30 18:32:23;;;;;;;2.78;1.02;;;;;;;17.88;100.00;98088.13;15299970;19;20011;-72
2023/07/30 18:37:47;;;;;;;2.15;0.90;;;;;;;17.76;100.00;98093.41;15296047;19;20082;-73
2023/07/30 18:43:17;;;;;;;3.30;0.98;;;;;;;17.57;100.00;98097.88;15296286;19;20007;-73
2023/07/30 18:48:44;;;;;;;4.15;0.90;;;;;;;17.49;100.00;98098.13;15293758;19;20066;-73
2023/07/30 18:54:09;;;;;;;3.40;0.90;;;;;;;17.39;100.00;98101.28;15295507;19;20430;-73
2023/07/30 18:59:33;;;;;;;3.08;1.02;;;;;;;17.20;100.00;98109.31;15289663;19;20003;-73
2023/07/30 19:05:01;;;;;;;2.55;0.93;;;;;;;17.08;100.00;98114.53;15294697;19;20010;-73
2023/07/30 19:10:32;;;;;;;3.20;0.90;;;;;;;16.93;100.00;98122.91;15286742;19;20457;-72
2023/07/30 19:15:57;;;;;;;2.22;0.90;;;;;;;16.93;100.00;98125.63;15295693;19;20010;-73
2023/07/30 19:21:24;;;;;;;2.42;0.90;;;;;;;16.81;100.00;98124.56;15300632;19;20024;-76
2023/07/30 19:26:50;;;;;;;2.45;0.85;;;;;;;16.70;100.00;98136.91;15292561;19;20014;-75
2023/07/30 19:32:15;;;;;;;2.53;0.98;;;;;;;16.66;100.00;98140.25;15289530;19;20103;-76
2023/07/30 19:37:44;;;;;;;2.30;1.10;;;;;;;16.63;100.00;98131.47;15297288;19;20050;-75
2023/07/30 19:43:08;;;;;;;2.22;0.77;;;;;;;16.57;100.00;98121.41;15293889;19;20032;-76
2023/07/30 19:48:33;;;;;;;2.83;1.10;;;;;;;16.42;100.00;98128.91;15242171;19;20018;-75
2023/07/30 19:54:01;;;;;;;3.33;1.10;;;;;;;16.35;100.00;98142.50;15295076;19;20015;-75
2023/07/30 19:59:26;;;;;;;4.93;1.00;;;;;;;16.26;100.00;98139.16;15293469;19;20428;-77
2023/07/30 20:04:51;;;;;;;1.80;0.80;;;;;;;16.23;100.00;98136.00;15290149;19;20532;-76
2023/07/30 20:10:19;;;;;;;3.60;1.30;;;;;;;16.12;100.00;98134.72;15295133;19;20025;-76
2023/07/30 20:15:44;;;;;;;4.20;1.10;;;;;;;16.06;100.00;98139.06;15291398;19;20013;-77
2023/07/30 20:21:10;;;;;;;5.53;1.13;;;;;;;16.00;100.00;98143.44;15290994;19;20014;-77
2023/07/30 20:26:37;;;;;;;5.40;1.10;;;;;;;15.95;100.00;98154.06;15291600;19;20449;-76
2023/07/30 20:32:02;;;;;;;3.55;1.00;;;;;;;15.89;100.00;98152.19;15270530;19;20074;-77
2023/07/30 20:37:26;;;;;;;2.42;0.82;;;;;;;15.84;100.00;98162.78;15287952;19;20011;-76
2023/07/30 20:42:55;;;;;;;3.65;0.90;;;;;;;15.74;100.00;98175.88;15292688;19;20484;-76
2023/07/30 20:48:19;;;;;;;2.38;0.80;;;;;;;15.69;100.00;98158.34;15285586;19;20014;-75
2023/07/30 20:53:44;;;;;;;2.20;0.90;;;;;;;15.66;100.00;98169.59;15290579;19;20017;-75
2023/07/30 20:59:11;;;;;;;2.30;0.85;;;;;;;15.62;100.00;98173.72;15287332;19;20025;-75
2023/07/30 21:04:36;;;;;;;3.58;1.10;;;;;;;15.60;100.00;98166.84;15290912;19;20013;-76
2023/07/30 21:10:00;;;;;;;2.33;0.95;;;;;;;15.54;100.00;98169.28;15284048;19;20014;-77
2023/07/30 21:15:28;;;;;;;5.53;1.20;;;;;;;15.45;100.00;98169.69;15290975;19;20010;-76
2023/07/30 21:20:52;;;;;;;2.83;1.13;;;;;;;15.34;100.00;98165.63;15285026;19;20023;-77
2023/07/30 21:26:17;;;;;;;3.10;1.00;;;;;;;15.21;100.00;98171.81;15290736;19;20025;-77
2023/07/30 21:31:44;;;;;;;2.35;0.95;;;;;;;15.14;100.00;98165.47;15292767;19;20078;-77
2023/07/30 21:37:09;;;;;;;2.15;0.90;;;;;;;15.04;100.00;98163.94;15290047;19;20011;-77
2023/07/30 21:42:34;;;;;;;2.95;0.90;;;;;;;14.98;100.00;98167.47;15283477;19;20023;-76
2023/07/30 21:48:02;;;;;;;3.47;0.90;;;;;;;14.95;100.00;98162.41;15288209;19;20014;-77
2023/07/30 21:53:27;;;;;;;2.13;1.10;;;;;;;14.89;100.00;98169.47;15289465;19;20082;-76
2023/07/30 21:58:52;;;;;;;4.18;1.20;;;;;;;14.83;100.00;98158.56;15344009;19;20014;-76
2023/07/30 22:04:19;;;;;;;2.35;1.00;;;;;;;14.79;100.00;98153.50;15309172;19;20018;-77
2023/07/30 22:09:54;;;;;;;4.25;1.17;;;;;;;14.76;100.00;98159.31;15297642;19;20494;-77
2023/07/30 22:15:19;;;;;;;3.38;1.00;;;;;;;14.69;100.00;98158.44;15293466;19;20086;-76
2023/07/30 22:20:46;;;;;;;2.97;0.98;;;;;;;14.67;100.00;98156.94;15296175;19;20018;-76
2023/07/30 22:26:11;;;;;;;5.15;1.00;;;;;;;14.63;100.00;98156.47;15294537;19;20011;-77
2023/07/30 22:31:35;;;;;;;3.30;1.10;;;;;;;14.61;100.00;98155.84;15301517;19;20006;-77
2023/07/30 22:37:03;;;;;;;2.50;1.10;;;;;;;14.57;100.00;98149.97;15298896;19;20013;-76
2023/07/30 22:42:28;;;;;;;1.92;0.98;;;;;;;14.55;100.00;98140.31;15299269;19;20011;-77
2023/07/30 22:47:53;;;;;;;2.00;0.77;;;;;;;14.53;100.00;98137.81;15286856;19;20033;-77
2023/07/30 22:53:20;;;;;;;2.20;0.85;;;;;;;14.54;100.00;98144.06;15297035;19;20029;-77
2023/07/30 22:58:45;;;;;;;3.15;0.95;;;;;;;14.51;100.00;98139.06;15288948;19;20018;-76
2023/07/30 23:04:09;;;;;;;2.72;0.90;;;;;;;14.49;100.00;98133.81;15294416;19;20086;-77
2023/07/30 23:09:37;;;;;;;1.45;0.82;;;;;;;14.51;100.00;98125.50;15291290;19;20018;-76
2023/07/30 23:15:02;;;;;;;2.67;1.08;;;;;;;14.54;100.00;98122.38;15294328;19;20017;-77
2023/07/30 23:20:27;;;;;;;2.08;0.90;;;;;;;14.58;100.00;98118.25;15287893;19;20014;-76
2023/07/30 23:25:54;;;;;;;3.88;1.00;;;;;;;14.61;100.00;98107.03;15294502;19;20028;-77
2023/07/30 23:31:19;;;;;;;3.47;0.95;;;;;;;14.62;100.00;98108.72;15290160;19;20014;-76
2023/07/30 23:36:43;;;;;;;2.28;0.70;;;;;;;14.62;100.00;98100.56;15295978;19;20011;-75
2023/07/30 23:42:11;;;;;;;3.22;1.00;;;;;;;14.60;100.00;98092.63;15290546;19;20113;-77
2023/07/30 23:47:35;;;;;;;1.98;0.85;;;;;;;14.60;100.00;98089.91;15290267;19;20022;-77
2023/07/30 23:53:00;;;;;;;3.33;1.13;;;;;;;14.62;100.00;98079.72;15305257;19;20070;-76
2023/07/30 23:58:27;;;;;;;1.90;0.95;;;;;;;14.73;100.00;98082.94;15311334;19;20083;-76
